sensor_id;sensor_type;location;lat;lon;timestamp;P1;durP1;ratioP1;P2;durP2;ratioP2
51438;SDS011;38816;51.142;-0.974;2022-07-29T00:02:07;2.38;;;1.50;;
51438;SDS011;38816;51.142;-0.974;2022-07-29T00:04:36;4.40;;;2.10;;
51438;SDS011;38816;51.142;-0.974;2022-07-29T00:07:02;6.10;;;1.58;;
51438;SDS011;38816;51.142;-0.974;2022-07-29T00:09:28;1.83;;;1.50;;
51438;SDS011;38816;51.142;-0.974;2022-07-29T00:11:54;8.45;;;1.92;;
51438;SDS011;38816;51.142;-0.974;2022-07-29T00:14:23;4.97;;;1.70;;
51438;SDS011;38816;51.142;-0.974;2022-07-29T00:16:48;3.72;;;1.60;;
51438;SDS011;38816;51.142;-0.974;2022-07-29T00:19:14;2.70;;;1.45;;
51438;SDS011;38816;51.142;-0.974;2022-07-29T00:21:39;5.75;;;1.90;;
51438;SDS011;38816;51.142;-0.974;2022-07-29T00:24:05;2.83;;;1.73;;
51438;SDS011;38816;51.142;-0.974;2022-07-29T00:26:30;3.05;;;1.77;;
51438;SDS011;38816;51.142;-0.974;2022-07-29T00:29:00;4.07;;;1.60;;
51438;SDS011;38816;51.142;-0.974;2022-07-29T00:31:27;2.90;;;1.60;;
51438;SDS011;38816;51.142;-0.974;2022-07-29T00:33:53;2.50;;;1.52;;
51438;SDS011;38816;51.142;-0.974;2022-07-29T00:36:18;2.85;;;1.50;;
51438;SDS011;38816;51.142;-0.974;2022-07-29T00:38:46;6.80;;;1.70;;
51438;SDS011;38816;51.142;-0.974;2022-07-29T00:41:15;5.40;;;1.77;;
51438;SDS011;38816;51.142;-0.974;2022-07-29T00:43:41;4.05;;;1.67;;
51438;SDS011;38816;51.142;-0.974;2022-07-29T00:46:07;2.30;;;1.73;;
51438;SDS011;38816;51.142;-0.974;2022-07-29T00:48:33;3.70;;;1.33;;
51438;SDS011;38816;51.142;-0.974;2022-07-29T00:50:59;5.65;;;1.63;;
51438;SDS011;38816;51.142;-0.974;2022-07-29T00:53:27;4.65;;;1.55;;
51438;SDS011;38816;51.142;-0.974;2022-07-29T00:55:53;5.35;;;1.73;;
51438;SDS011;38816;51.142;-0.974;2022-07-29T00:58:20;2.65;;;1.88;;
51438;SDS011;38816;51.142;-0.974;2022-07-29T01:00:46;4.85;;;1.50;;
51438;SDS011;38816;51.142;-0.974;2022-07-29T01:03:12;5.57;;;1.58;;
51438;SDS011;38816;51.142;-0.974;2022-07-29T01:05:37;2.67;;;1.70;;
51438;SDS011;38816;51.142;-0.974;2022-07-29T01:08:05;5.55;;;1.42;;
51438;SDS011;38816;51.142;-0.974;2022-07-29T01:10:31;2.85;;;1.40;;
51438;SDS011;38816;51.142;-0.974;2022-07-29T01:12:58;2.85;;;1.95;;
51438;SDS011;38816;51.142;-0.974;2022-07-29T01:15:26;3.20;;;1.55;;
51438;SDS011;38816;51.142;-0.974;2022-07-29T01:18:03;5.20;;;1.88;;
51438;SDS011;38816;51.142;-0.974;2022-07-29T01:23:13;3.65;;;1.67;;
51438;SDS011;38816;51.142;-0.974;2022-07-29T01:29:02;2.65;;;1.40;;
51438;SDS011;38816;51.142;-0.974;2022-07-29T01:34:24;4.65;;;1.90;;
51438;SDS011;38816;51.142;-0.974;2022-07-29T01:37:03;3.90;;;1.88;;
51438;SDS011;38816;51.142;-0.974;2022-07-29T01:39:31;6.35;;;1.95;;
51438;SDS011;38816;51.142;-0.974;2022-07-29T01:47:59;4.18;;;1.50;;
51438;SDS011;38816;51.142;-0.974;2022-07-29T01:50:40;1.92;;;1.50;;
51438;SDS011;38816;51.142;-0.974;2022-07-29T01:53:24;3.88;;;1.65;;
51438;SDS011;38816;51.142;-0.974;2022-07-29T01:55:56;3.08;;;1.70;;
51438;SDS011;38816;51.142;-0.974;2022-07-29T01:58:24;4.93;;;1.90;;
51438;SDS011;38816;51.142;-0.974;2022-07-29T02:04:04;3.78;;;2.00;;
51438;SDS011;38816;51.142;-0.974;2022-07-29T02:06:33;3.00;;;1.88;;
51438;SDS011;38816;51.142;-0.974;2022-07-29T02:09:02;5.10;;;1.80;;
51438;SDS011;38816;51.142;-0.974;2022-07-29T02:11:30;4.22;;;1.95;;
51438;SDS011;38816;51.142;-0.974;2022-07-29T02:13:58;5.25;;;2.00;;
51438;SDS011;38816;51.142;-0.974;2022-07-29T02:16:26;5.22;;;2.22;;
51438;SDS011;38816;51.142;-0.974;2022-07-29T02:18:55;3.35;;;2.00;;
51438;SDS011;38816;51.142;-0.974;2022-07-29T02:21:24;5.50;;;2.10;;
51438;SDS011;38816;51.142;-0.974;2022-07-29T02:23:52;4.13;;;1.90;;
51438;SDS011;38816;51.142;-0.974;2022-07-29T02:26:22;4.70;;;2.03;;
51438;SDS011;38816;51.142;-0.974;2022-07-29T02:28:49;5.10;;;1.95;;
51438;SDS011;38816;51.142;-0.974;2022-07-29T02:31:18;4.20;;;2.05;;
51438;SDS011;38816;51.142;-0.974;2022-07-29T02:33:46;3.70;;;2.15;;
51438;SDS011;38816;51.142;-0.974;2022-07-29T02:36:17;8.80;;;2.03;;
51438;SDS011;38816;51.142;-0.974;2022-07-29T02:38:45;3.60;;;2.15;;
51438;SDS011;38816;51.142;-0.974;2022-07-29T02:43:55;4.13;;;1.90;;
51438;SDS011;38816;51.142;-0.974;2022-07-29T02:46:30;2.63;;;1.77;;
51438;SDS011;38816;51.142;-0.974;2022-07-29T02:48:59;3.13;;;1.70;;
51438;SDS011;38816;51.142;-0.974;2022-07-29T02:51:33;3.63;;;1.70;;
51438;SDS011;38816;51.142;-0.974;2022-07-29T02:54:07;3.15;;;1.58;;
51438;SDS011;38816;51.142;-0.974;2022-07-29T02:56:35;5.60;;;2.20;;
51438;SDS011;38816;51.142;-0.974;2022-07-29T02:59:06;3.60;;;1.80;;
51438;SDS011;38816;51.142;-0.974;2022-07-29T03:01:34;2.85;;;2.10;;
51438;SDS011;38816;51.142;-0.974;2022-07-29T03:04:01;2.65;;;1.90;;
51438;SDS011;38816;51.142;-0.974;2022-07-29T03:06:29;2.25;;;1.50;;
51438;SDS011;38816;51.142;-0.974;2022-07-29T03:08:57;4.72;;;1.80;;
51438;SDS011;38816;51.142;-0.974;2022-07-29T03:11:25;1.92;;;1.63;;
51438;SDS011;38816;51.142;-0.974;2022-07-29T03:13:51;2.55;;;1.88;;
51438;SDS011;38816;51.142;-0.974;2022-07-29T03:16:18;5.32;;;1.25;;
51438;SDS011;38816;51.142;-0.974;2022-07-29T03:18:44;3.67;;;2.03;;
51438;SDS011;38816;51.142;-0.974;2022-07-29T03:21:11;4.28;;;1.55;;
51438;SDS011;38816;51.142;-0.974;2022-07-29T03:23:36;2.30;;;1.65;;
51438;SDS011;38816;51.142;-0.974;2022-07-29T03:26:02;2.08;;;1.50;;
51438;SDS011;38816;51.142;-0.974;2022-07-29T03:28:27;3.88;;;1.42;;
51438;SDS011;38816;51.142;-0.974;2022-07-29T03:30:54;4.25;;;1.48;;
51438;SDS011;38816;51.142;-0.974;2022-07-29T03:33:19;2.38;;;1.45;;
51438;SDS011;38816;51.142;-0.974;2022-07-29T03:35:45;4.10;;;1.55;;
51438;SDS011;38816;51.142;-0.974;2022-07-29T03:38:10;3.75;;;1.40;;
51438;SDS011;38816;51.142;-0.974;2022-07-29T03:40:45;4.45;;;1.90;;
51438;SDS011;38816;51.142;-0.974;2022-07-29T03:43:15;5.88;;;1.70;;
51438;SDS011;38816;51.142;-0.974;2022-07-29T03:45:45;4.70;;;1.65;;
51438;SDS011;38816;51.142;-0.974;2022-07-29T03:48:15;3.28;;;2.05;;
51438;SDS011;38816;51.142;-0.974;2022-07-29T03:50:43;3.20;;;1.67;;
51438;SDS011;38816;51.142;-0.974;2022-07-29T03:53:09;5.00;;;1.80;;
51438;SDS011;38816;51.142;-0.974;2022-07-29T03:55:36;5.57;;;1.83;;
51438;SDS011;38816;51.142;-0.974;2022-07-29T03:58:06;5.63;;;1.48;;
51438;SDS011;38816;51.142;-0.974;2022-07-29T04:00:33;4.60;;;1.80;;
51438;SDS011;38816;51.142;-0.974;2022-07-29T04:02:59;3.10;;;1.80;;
51438;SDS011;38816;51.142;-0.974;2022-07-29T04:05:26;1.58;;;1.33;;
51438;SDS011;38816;51.142;-0.974;2022-07-29T04:07:52;3.63;;;1.90;;
51438;SDS011;38816;51.142;-0.974;2022-07-29T04:10:17;4.22;;;1.65;;
51438;SDS011;38816;51.142;-0.974;2022-07-29T04:12:44;3.03;;;1.65;;
51438;SDS011;38816;51.142;-0.974;2022-07-29T04:15:10;1.58;;;1.42;;
51438;SDS011;38816;51.142;-0.974;2022-07-29T04:17:35;3.28;;;1.70;;
51438;SDS011;38816;51.142;-0.974;2022-07-29T04:20:02;4.38;;;1.80;;
51438;SDS011;38816;51.142;-0.974;2022-07-29T04:22:28;4.90;;;1.80;;
51438;SDS011;38816;51.142;-0.974;2022-07-29T04:24:53;4.63;;;1.42;;
51438;SDS011;38816;51.142;-0.974;2022-07-29T04:27:19;5.22;;;2.00;;
51438;SDS011;38816;51.142;-0.974;2022-07-29T04:29:44;2.05;;;1.60;;
51438;SDS011;38816;51.142;-0.974;2022-07-29T04:32:10;4.25;;;1.70;;
51438;SDS011;38816;51.142;-0.974;2022-07-29T04:34:35;3.17;;;1.65;;
51438;SDS011;38816;51.142;-0.974;2022-07-29T04:37:00;4.57;;;1.90;;
51438;SDS011;38816;51.142;-0.974;2022-07-29T04:39:26;2.13;;;1.60;;
51438;SDS011;38816;51.142;-0.974;2022-07-29T04:41:51;6.93;;;1.77;;
51438;SDS011;38816;51.142;-0.974;2022-07-29T04:44:17;5.15;;;1.88;;
51438;SDS011;38816;51.142;-0.974;2022-07-29T04:46:42;4.32;;;1.70;;
51438;SDS011;38816;51.142;-0.974;2022-07-29T04:49:08;5.78;;;1.58;;
51438;SDS011;38816;51.142;-0.974;2022-07-29T04:51:33;7.07;;;2.35;;
51438;SDS011;38816;51.142;-0.974;2022-07-29T04:53:59;6.22;;;2.17;;
51438;SDS011;38816;51.142;-0.974;2022-07-29T04:56:25;5.85;;;1.40;;
51438;SDS011;38816;51.142;-0.974;2022-07-29T04:58:50;5.95;;;1.73;;
51438;SDS011;38816;51.142;-0.974;2022-07-29T05:01:16;3.47;;;1.50;;
51438;SDS011;38816;51.142;-0.974;2022-07-29T05:03:41;4.18;;;1.73;;
51438;SDS011;38816;51.142;-0.974;2022-07-29T05:06:07;4.32;;;1.70;;
51438;SDS011;38816;51.142;-0.974;2022-07-29T05:08:32;3.28;;;1.50;;
51438;SDS011;38816;51.142;-0.974;2022-07-29T05:10:58;2.65;;;1.63;;
51438;SDS011;38816;51.142;-0.974;2022-07-29T05:13:23;4.40;;;1.48;;
51438;SDS011;38816;51.142;-0.974;2022-07-29T05:15:49;5.97;;;1.50;;
51438;SDS011;38816;51.142;-0.974;2022-07-29T05:18:14;2.15;;;1.45;;
51438;SDS011;38816;51.142;-0.974;2022-07-29T05:20:40;3.53;;;1.80;;
51438;SDS011;38816;51.142;-0.974;2022-07-29T05:23:06;3.45;;;1.70;;
51438;SDS011;38816;51.142;-0.974;2022-07-29T05:25:31;3.67;;;1.63;;
51438;SDS011;38816;51.142;-0.974;2022-07-29T05:27:57;8.20;;;1.88;;
51438;SDS011;38816;51.142;-0.974;2022-07-29T05:30:23;3.15;;;1.52;;
51438;SDS011;38816;51.142;-0.974;2022-07-29T05:32:49;4.63;;;1.70;;
51438;SDS011;38816;51.142;-0.974;2022-07-29T05:35:14;4.65;;;1.80;;
51438;SDS011;38816;51.142;-0.974;2022-07-29T05:37:40;2.88;;;1.70;;
51438;SDS011;38816;51.142;-0.974;2022-07-29T05:40:07;4.90;;;1.92;;
51438;SDS011;38816;51.142;-0.974;2022-07-29T05:42:33;4.75;;;1.80;;
51438;SDS011;38816;51.142;-0.974;2022-07-29T05:44:59;4.75;;;1.83;;
51438;SDS011;38816;51.142;-0.974;2022-07-29T05:47:25;4.75;;;1.95;;
51438;SDS011;38816;51.142;-0.974;2022-07-29T05:49:50;3.78;;;1.85;;
51438;SDS011;38816;51.142;-0.974;2022-07-29T05:52:16;3.58;;;1.60;;
51438;SDS011;38816;51.142;-0.974;2022-07-29T05:54:42;3.35;;;1.73;;
51438;SDS011;38816;51.142;-0.974;2022-07-29T05:57:08;4.68;;;1.70;;
51438;SDS011;38816;51.142;-0.974;2022-07-29T05:59:39;5.68;;;1.50;;
51438;SDS011;38816;51.142;-0.974;2022-07-29T06:02:05;3.65;;;1.65;;
51438;SDS011;38816;51.142;-0.974;2022-07-29T06:04:31;4.30;;;1.83;;
51438;SDS011;38816;51.142;-0.974;2022-07-29T06:06:57;6.32;;;1.52;;
51438;SDS011;38816;51.142;-0.974;2022-07-29T06:09:22;3.92;;;1.67;;
51438;SDS011;38816;51.142;-0.974;2022-07-29T06:11:48;5.10;;;1.80;;
51438;SDS011;38816;51.142;-0.974;2022-07-29T06:14:13;6.32;;;1.98;;
51438;SDS011;38816;51.142;-0.974;2022-07-29T06:16:39;2.20;;;1.50;;
51438;SDS011;38816;51.142;-0.974;2022-07-29T06:19:05;3.17;;;2.00;;
51438;SDS011;38816;51.142;-0.974;2022-07-29T06:21:30;4.45;;;1.52;;
51438;SDS011;38816;51.142;-0.974;2022-07-29T06:23:56;3.80;;;1.70;;
51438;SDS011;38816;51.142;-0.974;2022-07-29T06:26:21;1.85;;;1.58;;
51438;SDS011;38816;51.142;-0.974;2022-07-29T06:28:47;2.60;;;1.83;;
51438;SDS011;38816;51.142;-0.974;2022-07-29T06:31:13;6.50;;;1.83;;
51438;SDS011;38816;51.142;-0.974;2022-07-29T06:33:39;10.55;;;1.85;;
51438;SDS011;38816;51.142;-0.974;2022-07-29T06:36:04;5.93;;;1.75;;
51438;SDS011;38816;51.142;-0.974;2022-07-29T06:38:30;6.47;;;2.00;;
51438;SDS011;38816;51.142;-0.974;2022-07-29T06:40:56;4.25;;;2.05;;
51438;SDS011;38816;51.142;-0.974;2022-07-29T06:43:33;8.65;;;1.90;;
51438;SDS011;38816;51.142;-0.974;2022-07-29T06:46:01;5.53;;;2.00;;
51438;SDS011;38816;51.142;-0.974;2022-07-29T06:48:29;5.43;;;2.00;;
51438;SDS011;38816;51.142;-0.974;2022-07-29T06:50:55;6.82;;;2.20;;
51438;SDS011;38816;51.142;-0.974;2022-07-29T06:53:21;6.50;;;2.10;;
51438;SDS011;38816;51.142;-0.974;2022-07-29T06:55:47;4.38;;;2.03;;
51438;SDS011;38816;51.142;-0.974;2022-07-29T06:58:12;3.97;;;1.67;;
51438;SDS011;38816;51.142;-0.974;2022-07-29T07:00:40;7.97;;;1.95;;
51438;SDS011;38816;51.142;-0.974;2022-07-29T07:03:06;4.45;;;2.20;;
51438;SDS011;38816;51.142;-0.974;2022-07-29T07:05:32;8.02;;;1.95;;
51438;SDS011;38816;51.142;-0.974;2022-07-29T07:07:57;6.18;;;1.88;;
51438;SDS011;38816;51.142;-0.974;2022-07-29T07:10:23;5.25;;;2.17;;
51438;SDS011;38816;51.142;-0.974;2022-07-29T07:12:48;8.88;;;1.95;;
51438;SDS011;38816;51.142;-0.974;2022-07-29T07:15:14;4.38;;;2.00;;
51438;SDS011;38816;51.142;-0.974;2022-07-29T07:17:39;6.47;;;2.22;;
51438;SDS011;38816;51.142;-0.974;2022-07-29T07:20:05;7.78;;;2.42;;
51438;SDS011;38816;51.142;-0.974;2022-07-29T07:22:31;4.47;;;1.88;;
51438;SDS011;38816;51.142;-0.974;2022-07-29T07:24:57;4.05;;;1.67;;
51438;SDS011;38816;51.142;-0.974;2022-07-29T07:27:22;6.68;;;1.83;;
51438;SDS011;38816;51.142;-0.974;2022-07-29T07:29:48;4.07;;;1.55;;
51438;SDS011;38816;51.142;-0.974;2022-07-29T07:32:13;3.92;;;1.70;;
51438;SDS011;38816;51.142;-0.974;2022-07-29T07:34:41;6.40;;;1.70;;
51438;SDS011;38816;51.142;-0.974;2022-07-29T07:37:07;6.82;;;1.75;;
51438;SDS011;38816;51.142;-0.974;2022-07-29T07:39:33;4.57;;;1.55;;
51438;SDS011;38816;51.142;-0.974;2022-07-29T07:41:58;6.13;;;1.48;;
51438;SDS011;38816;51.142;-0.974;2022-07-29T07:44:24;5.13;;;1.67;;
51438;SDS011;38816;51.142;-0.974;2022-07-29T07:46:49;7.38;;;1.63;;
51438;SDS011;38816;51.142;-0.974;2022-07-29T07:49:15;3.28;;;1.65;;
51438;SDS011;38816;51.142;-0.974;2022-07-29T07:51:40;4.82;;;1.48;;
51438;SDS011;38816;51.142;-0.974;2022-07-29T07:54:06;5.57;;;1.73;;
51438;SDS011;38816;51.142;-0.974;2022-07-29T07:56:31;9.38;;;2.22;;
51438;SDS011;38816;51.142;-0.974;2022-07-29T07:58:57;5.47;;;1.30;;
51438;SDS011;38816;51.142;-0.974;2022-07-29T08:01:22;4.65;;;1.48;;
51438;SDS011;38816;51.142;-0.974;2022-07-29T08:03:49;9.73;;;1.42;;
51438;SDS011;38816;51.142;-0.974;2022-07-29T08:06:14;2.75;;;1.27;;
51438;SDS011;38816;51.142;-0.974;2022-07-29T08:08:40;8.10;;;1.40;;
51438;SDS011;38816;51.142;-0.974;2022-07-29T08:11:05;3.67;;;1.25;;
51438;SDS011;38816;51.142;-0.974;2022-07-29T08:13:31;2.75;;;1.10;;
51438;SDS011;38816;51.142;-0.974;2022-07-29T08:15:57;3.75;;;1.30;;
51438;SDS011;38816;51.142;-0.974;2022-07-29T08:18:24;7.28;;;1.23;;
51438;SDS011;38816;51.142;-0.974;2022-07-29T08:20:50;3.50;;;1.17;;
51438;SDS011;38816;51.142;-0.974;2022-07-29T08:23:15;1.23;;;1.00;;
51438;SDS011;38816;51.142;-0.974;2022-07-29T08:25:41;4.53;;;1.13;;
51438;SDS011;38816;51.142;-0.974;2022-07-29T08:28:07;3.97;;;1.30;;
51438;SDS011;38816;51.142;-0.974;2022-07-29T08:30:33;7.07;;;1.48;;
51438;SDS011;38816;51.142;-0.974;2022-07-29T08:32:59;3.63;;;1.55;;
51438;SDS011;38816;51.142;-0.974;2022-07-29T08:35:24;3.70;;;2.00;;
51438;SDS011;38816;51.142;-0.974;2022-07-29T08:37:50;2.38;;;1.00;;
51438;SDS011;38816;51.142;-0.974;2022-07-29T08:40:16;3.50;;;0.77;;
51438;SDS011;38816;51.142;-0.974;2022-07-29T08:42:42;3.72;;;0.93;;
51438;SDS011;38816;51.142;-0.974;2022-07-29T08:45:07;4.90;;;1.10;;
51438;SDS011;38816;51.142;-0.974;2022-07-29T08:47:33;3.22;;;0.80;;
51438;SDS011;38816;51.142;-0.974;2022-07-29T08:50:03;3.40;;;1.00;;
51438;SDS011;38816;51.142;-0.974;2022-07-29T08:52:29;7.63;;;1.10;;
51438;SDS011;38816;51.142;-0.974;2022-07-29T08:54:57;4.30;;;0.98;;
51438;SDS011;38816;51.142;-0.974;2022-07-29T08:57:23;2.75;;;1.10;;
51438;SDS011;38816;51.142;-0.974;2022-07-29T08:59:50;3.53;;;1.30;;
51438;SDS011;38816;51.142;-0.974;2022-07-29T09:02:19;1.95;;;0.80;;
51438;SDS011;38816;51.142;-0.974;2022-07-29T09:04:46;3.30;;;0.98;;
51438;SDS011;38816;51.142;-0.974;2022-07-29T09:07:14;4.43;;;0.88;;
51438;SDS011;38816;51.142;-0.974;2022-07-29T09:09:41;2.97;;;0.90;;
51438;SDS011;38816;51.142;-0.974;2022-07-29T09:12:08;2.40;;;1.10;;
51438;SDS011;38816;51.142;-0.974;2022-07-29T09:14:37;4.72;;;0.95;;
51438;SDS011;38816;51.142;-0.974;2022-07-29T09:17:03;3.22;;;1.00;;
51438;SDS011;38816;51.142;-0.974;2022-07-29T09:19:35;2.35;;;0.75;;
51438;SDS011;38816;51.142;-0.974;2022-07-29T09:22:03;2.80;;;0.70;;
51438;SDS011;38816;51.142;-0.974;2022-07-29T09:27:10;2.08;;;0.90;;
51438;SDS011;38816;51.142;-0.974;2022-07-29T09:29:44;1.50;;;0.85;;
51438;SDS011;38816;51.142;-0.974;2022-07-29T09:32:10;3.55;;;1.13;;
51438;SDS011;38816;51.142;-0.974;2022-07-29T09:34:36;6.68;;;1.30;;
51438;SDS011;38816;51.142;-0.974;2022-07-29T09:37:02;4.43;;;1.17;;
51438;SDS011;38816;51.142;-0.974;2022-07-29T09:39:34;1.05;;;0.70;;
51438;SDS011;38816;51.142;-0.974;2022-07-29T09:42:03;2.03;;;1.05;;
51438;SDS011;38816;51.142;-0.974;2022-07-29T09:47:14;8.05;;;0.93;;
51438;SDS011;38816;51.142;-0.974;2022-07-29T09:49:54;2.47;;;0.93;;
51438;SDS011;38816;51.142;-0.974;2022-07-29T09:52:25;4.00;;;0.70;;
51438;SDS011;38816;51.142;-0.974;2022-07-29T09:54:52;3.70;;;1.10;;
51438;SDS011;38816;51.142;-0.974;2022-07-29T09:57:28;4.13;;;1.00;;
51438;SDS011;38816;51.142;-0.974;2022-07-29T10:02:33;3.45;;;1.05;;
51438;SDS011;38816;51.142;-0.974;2022-07-29T10:05:00;1.67;;;0.90;;
51438;SDS011;38816;51.142;-0.974;2022-07-29T10:07:49;1.73;;;0.90;;
51438;SDS011;38816;51.142;-0.974;2022-07-29T10:10:24;2.67;;;0.88;;
51438;SDS011;38816;51.142;-0.974;2022-07-29T10:12:55;3.88;;;0.90;;
51438;SDS011;38816;51.142;-0.974;2022-07-29T10:15:23;2.42;;;0.90;;
51438;SDS011;38816;51.142;-0.974;2022-07-29T10:17:50;5.43;;;0.90;;
51438;SDS011;38816;51.142;-0.974;2022-07-29T10:20:17;2.83;;;0.80;;
51438;SDS011;38816;51.142;-0.974;2022-07-29T10:22:43;2.35;;;0.70;;
51438;SDS011;38816;51.142;-0.974;2022-07-29T10:25:09;5.40;;;1.00;;
51438;SDS011;38816;51.142;-0.974;2022-07-29T10:27:36;1.83;;;0.60;;
51438;SDS011;38816;51.142;-0.974;2022-07-29T10:30:02;3.25;;;0.90;;
51438;SDS011;38816;51.142;-0.974;2022-07-29T10:38:18;3.40;;;1.00;;
51438;SDS011;38816;51.142;-0.974;2022-07-29T10:43:51;2.80;;;0.80;;
51438;SDS011;38816;51.142;-0.974;2022-07-29T10:46:19;3.88;;;1.00;;
51438;SDS011;38816;51.142;-0.974;2022-07-29T10:51:54;2.28;;;0.63;;
51438;SDS011;38816;51.142;-0.974;2022-07-29T11:05:03;3.15;;;0.70;;
51438;SDS011;38816;51.142;-0.974;2022-07-29T11:07:30;2.60;;;0.98;;
51438;SDS011;38816;51.142;-0.974;2022-07-29T11:15:02;1.17;;;0.60;;
51438;SDS011;38816;51.142;-0.974;2022-07-29T11:17:39;3.05;;;1.05;;
51438;SDS011;38816;51.142;-0.974;2022-07-29T11:29:22;2.35;;;0.80;;
51438;SDS011;38816;51.142;-0.974;2022-07-29T11:45:03;2.28;;;0.98;;
51438;SDS011;38816;51.142;-0.974;2022-07-29T11:47:31;3.30;;;1.00;;
51438;SDS011;38816;51.142;-0.974;2022-07-29T11:50:10;1.83;;;0.90;;
51438;SDS011;38816;51.142;-0.974;2022-07-29T11:52:42;1.80;;;0.80;;
51438;SDS011;38816;51.142;-0.974;2022-07-29T11:55:11;5.38;;;2.30;;
51438;SDS011;38816;51.142;-0.974;2022-07-29T11:58:00;2.95;;;0.68;;
51438;SDS011;38816;51.142;-0.974;2022-07-29T12:00:29;3.20;;;0.98;;
51438;SDS011;38816;51.142;-0.974;2022-07-29T12:03:00;4.53;;;1.00;;
51438;SDS011;38816;51.142;-0.974;2022-07-29T12:05:35;3.08;;;0.70;;
51438;SDS011;38816;51.142;-0.974;2022-07-29T12:08:09;2.90;;;0.70;;
51438;SDS011;38816;51.142;-0.974;2022-07-29T12:10:44;6.15;;;1.00;;
51438;SDS011;38816;51.142;-0.974;2022-07-29T12:13:11;3.00;;;1.00;;
51438;SDS011;38816;51.142;-0.974;2022-07-29T12:15:37;1.13;;;0.70;;
51438;SDS011;38816;51.142;-0.974;2022-07-29T12:18:13;5.45;;;0.88;;
51438;SDS011;38816;51.142;-0.974;2022-07-29T12:20:41;2.03;;;0.73;;
51438;SDS011;38816;51.142;-0.974;2022-07-29T12:23:07;4.90;;;1.20;;
51438;SDS011;38816;51.142;-0.974;2022-07-29T12:25:36;2.17;;;0.90;;
51438;SDS011;38816;51.142;-0.974;2022-07-29T12:28:03;5.13;;;1.33;;
51438;SDS011;38816;51.142;-0.974;2022-07-29T12:30:35;5.28;;;1.05;;
51438;SDS011;38816;51.142;-0.974;2022-07-29T12:33:14;4.10;;;0.88;;
51438;SDS011;38816;51.142;-0.974;2022-07-29T12:35:47;3.33;;;1.05;;
51438;SDS011;38816;51.142;-0.974;2022-07-29T12:38:15;1.45;;;0.75;;
51438;SDS011;38816;51.142;-0.974;2022-07-29T12:40:42;6.25;;;1.00;;
51438;SDS011;38816;51.142;-0.974;2022-07-29T12:43:09;3.25;;;0.90;;
51438;SDS011;38816;51.142;-0.974;2022-07-29T12:45:35;4.30;;;0.95;;
51438;SDS011;38816;51.142;-0.974;2022-07-29T12:48:01;3.58;;;1.00;;
51438;SDS011;38816;51.142;-0.974;2022-07-29T12:50:26;3.22;;;0.98;;
51438;SDS011;38816;51.142;-0.974;2022-07-29T12:52:52;1.50;;;1.02;;
51438;SDS011;38816;51.142;-0.974;2022-07-29T12:56:00;1.10;;;0.80;;
51438;SDS011;38816;51.142;-0.974;2022-07-29T12:58:07;2.97;;;1.10;;
51438;SDS011;38816;51.142;-0.974;2022-07-29T13:00:33;4.43;;;1.00;;
51438;SDS011;38816;51.142;-0.974;2022-07-29T13:02:59;3.15;;;1.00;;
51438;SDS011;38816;51.142;-0.974;2022-07-29T13:05:41;2.75;;;1.08;;
51438;SDS011;38816;51.142;-0.974;2022-07-29T13:08:14;3.42;;;1.02;;
51438;SDS011;38816;51.142;-0.974;2022-07-29T13:10:41;3.30;;;1.05;;
51438;SDS011;38816;51.142;-0.974;2022-07-29T13:13:08;3.17;;;1.10;;
51438;SDS011;38816;51.142;-0.974;2022-07-29T13:15:35;2.30;;;1.10;;
51438;SDS011;38816;51.142;-0.974;2022-07-29T13:18:02;3.17;;;0.90;;
51438;SDS011;38816;51.142;-0.974;2022-07-29T13:20:28;2.50;;;1.10;;
51438;SDS011;38816;51.142;-0.974;2022-07-29T13:22:55;2.58;;;1.00;;
51438;SDS011;38816;51.142;-0.974;2022-07-29T13:25:31;3.00;;;0.75;;
51438;SDS011;38816;51.142;-0.974;2022-07-29T13:27:57;2.33;;;0.85;;
51438;SDS011;38816;51.142;-0.974;2022-07-29T13:30:24;2.97;;;0.90;;
51438;SDS011;38816;51.142;-0.974;2022-07-29T13:32:50;3.28;;;0.98;;
51438;SDS011;38816;51.142;-0.974;2022-07-29T13:35:17;3.08;;;0.90;;
51438;SDS011;38816;51.142;-0.974;2022-07-29T13:37:43;1.27;;;0.70;;
51438;SDS011;38816;51.142;-0.974;2022-07-29T13:40:09;1.90;;;0.75;;
51438;SDS011;38816;51.142;-0.974;2022-07-29T13:42:36;5.22;;;0.98;;
51438;SDS011;38816;51.142;-0.974;2022-07-29T13:45:01;4.10;;;1.00;;
51438;SDS011;38816;51.142;-0.974;2022-07-29T13:47:28;2.92;;;1.20;;
51438;SDS011;38816;51.142;-0.974;2022-07-29T13:49:56;2.17;;;0.80;;
51438;SDS011;38816;51.142;-0.974;2022-07-29T13:52:21;3.33;;;1.13;;
51438;SDS011;38816;51.142;-0.974;2022-07-29T13:54:47;1.83;;;0.90;;
51438;SDS011;38816;51.142;-0.974;2022-07-29T13:57:13;2.70;;;0.93;;
51438;SDS011;38816;51.142;-0.974;2022-07-29T13:59:39;6.05;;;1.10;;
51438;SDS011;38816;51.142;-0.974;2022-07-29T14:02:07;3.72;;;0.95;;
51438;SDS011;38816;51.142;-0.974;2022-07-29T14:04:33;1.85;;;0.82;;
51438;SDS011;38816;51.142;-0.974;2022-07-29T14:06:59;4.50;;;0.95;;
51438;SDS011;38816;51.142;-0.974;2022-07-29T14:09:25;2.60;;;1.00;;
51438;SDS011;38816;51.142;-0.974;2022-07-29T14:11:50;3.28;;;0.93;;
51438;SDS011;38816;51.142;-0.974;2022-07-29T14:14:17;3.47;;;0.88;;
51438;SDS011;38816;51.142;-0.974;2022-07-29T14:16:43;2.92;;;0.88;;
51438;SDS011;38816;51.142;-0.974;2022-07-29T14:19:08;3.35;;;1.02;;
51438;SDS011;38816;51.142;-0.974;2022-07-29T14:21:34;2.78;;;0.82;;
51438;SDS011;38816;51.142;-0.974;2022-07-29T14:23:59;2.70;;;0.80;;
51438;SDS011;38816;51.142;-0.974;2022-07-29T14:26:25;1.98;;;0.85;;
51438;SDS011;38816;51.142;-0.974;2022-07-29T14:28:50;3.72;;;1.00;;
51438;SDS011;38816;51.142;-0.974;2022-07-29T14:31:16;3.92;;;0.80;;
51438;SDS011;38816;51.142;-0.974;2022-07-29T14:33:41;2.17;;;0.77;;
51438;SDS011;38816;51.142;-0.974;2022-07-29T14:36:07;1.95;;;0.80;;
51438;SDS011;38816;51.142;-0.974;2022-07-29T14:38:34;1.98;;;0.70;;
51438;SDS011;38816;51.142;-0.974;2022-07-29T14:41:00;1.23;;;0.80;;
51438;SDS011;38816;51.142;-0.974;2022-07-29T14:43:25;2.38;;;0.60;;
51438;SDS011;38816;51.142;-0.974;2022-07-29T14:45:51;1.67;;;0.80;;
51438;SDS011;38816;51.142;-0.974;2022-07-29T14:48:16;1.75;;;0.60;;
51438;SDS011;38816;51.142;-0.974;2022-07-29T14:50:42;3.00;;;0.82;;
51438;SDS011;38816;51.142;-0.974;2022-07-29T14:53:07;2.10;;;0.77;;
51438;SDS011;38816;51.142;-0.974;2022-07-29T14:55:33;1.80;;;0.90;;
51438;SDS011;38816;51.142;-0.974;2022-07-29T14:57:58;1.98;;;0.80;;
51438;SDS011;38816;51.142;-0.974;2022-07-29T15:00:24;3.58;;;1.05;;
51438;SDS011;38816;51.142;-0.974;2022-07-29T15:02:50;2.70;;;0.65;;
51438;SDS011;38816;51.142;-0.974;2022-07-29T15:05:15;1.42;;;0.60;;
51438;SDS011;38816;51.142;-0.974;2022-07-29T15:07:41;1.40;;;0.90;;
51438;SDS011;38816;51.142;-0.974;2022-07-29T15:10:06;2.28;;;0.93;;
51438;SDS011;38816;51.142;-0.974;2022-07-29T15:12:32;3.03;;;0.90;;
51438;SDS011;38816;51.142;-0.974;2022-07-29T15:14:57;1.63;;;0.90;;
51438;SDS011;38816;51.142;-0.974;2022-07-29T15:17:23;2.38;;;0.90;;
51438;SDS011;38816;51.142;-0.974;2022-07-29T15:19:48;2.25;;;0.85;;
51438;SDS011;38816;51.142;-0.974;2022-07-29T15:22:14;2.33;;;0.80;;
51438;SDS011;38816;51.142;-0.974;2022-07-29T15:24:39;3.35;;;0.90;;
51438;SDS011;38816;51.142;-0.974;2022-07-29T15:27:05;2.40;;;0.80;;
51438;SDS011;38816;51.142;-0.974;2022-07-29T15:29:30;2.40;;;0.70;;
51438;SDS011;38816;51.142;-0.974;2022-07-29T15:31:56;4.13;;;0.70;;
51438;SDS011;38816;51.142;-0.974;2022-07-29T15:34:21;1.38;;;0.70;;
51438;SDS011;38816;51.142;-0.974;2022-07-29T15:36:48;2.90;;;0.80;;
51438;SDS011;38816;51.142;-0.974;2022-07-29T15:39:15;4.35;;;0.70;;
51438;SDS011;38816;51.142;-0.974;2022-07-29T15:41:41;5.85;;;0.82;;
51438;SDS011;38816;51.142;-0.974;2022-07-29T15:44:06;2.83;;;1.02;;
51438;SDS011;38816;51.142;-0.974;2022-07-29T15:46:32;1.77;;;0.70;;
51438;SDS011;38816;51.142;-0.974;2022-07-29T15:49:16;5.32;;;0.98;;
51438;SDS011;38816;51.142;-0.974;2022-07-29T15:51:42;2.05;;;0.60;;
51438;SDS011;38816;51.142;-0.974;2022-07-29T15:54:08;4.47;;;0.60;;